Storla, South Dakota
Current Conditions -  °F | °C
As of 5:53 PM on Friday 28 Nov 2014 (Local Time) from KMHE Reporting Station
Clear Clear  
Wind Chill: 24°   Ceiling: Unl
Heat Index: 31°   Visibility: 10mi
Dew Point: 26°   Wind: 7mph
Humidity: 82%   Direction: 100°E
Pressure: 29.66"   Gusts: NA
Location:  43.8945°N, 98.2111°W
Report Text: KMHE 282353Z AUTO 10006KT 10SM CLR M01/M03 A2966 RMK AO2 SLP059 T10061033 10056 21006 55001
Loading
Personal Weather Stations






























Interactive Weather Map New forecast layout! Learn more

10-Day Weather Forecast

Advertisements
Track Severe Weather on mobile